createdAt,value
2018-10-02T00:00:33.820Z,7.50
2018-10-02T00:03:03.816Z,7.60
2018-10-02T00:05:33.060Z,7.60
2018-10-02T00:08:02.282Z,7.70
2018-10-02T00:10:31.563Z,7.80
2018-10-02T00:13:06.144Z,7.80
2018-10-02T00:15:35.653Z,7.80
2018-10-02T00:18:04.941Z,7.90
2018-10-02T00:20:34.227Z,7.90
2018-10-02T00:23:03.456Z,8.00
2018-10-02T00:25:32.688Z,8.00
2018-10-02T00:28:01.922Z,8.00
2018-10-02T00:30:31.144Z,8.10
2018-10-02T00:33:00.363Z,8.00
2018-10-02T00:35:29.563Z,7.90
2018-10-02T00:37:58.765Z,7.80
2018-10-02T00:40:27.988Z,7.70
2018-10-02T00:42:57.275Z,7.70
2018-10-02T00:45:26.478Z,7.70
2018-10-02T00:47:55.677Z,7.80
2018-10-02T00:50:24.889Z,7.80
2018-10-02T00:52:54.230Z,7.80
2018-10-02T00:55:23.478Z,7.90
2018-10-02T00:57:52.751Z,7.90
2018-10-02T01:00:22.575Z,7.90
2018-10-02T01:02:51.859Z,8.00
2018-10-02T01:05:21.119Z,8.00
2018-10-02T01:07:50.538Z,8.00
2018-10-02T01:10:19.748Z,8.00
2018-10-02T01:12:49.092Z,8.00
2018-10-02T01:15:18.349Z,7.90
2018-10-02T01:17:47.559Z,7.90
2018-10-02T01:20:16.759Z,7.90
2018-10-02T01:22:46.023Z,7.80
2018-10-02T01:25:15.291Z,7.80
2018-10-02T01:27:44.511Z,7.80
2018-10-02T01:30:13.762Z,7.70
2018-10-02T01:32:43.503Z,7.70
2018-10-02T01:35:12.763Z,7.70
2018-10-02T01:37:42.083Z,7.70
2018-10-02T01:40:11.283Z,7.70
2018-10-02T01:42:40.495Z,7.60
2018-10-02T01:45:09.720Z,7.60
2018-10-02T01:47:38.945Z,7.60
2018-10-02T01:50:08.309Z,7.60
2018-10-02T01:52:37.608Z,7.60
2018-10-02T01:55:06.915Z,7.60
2018-10-02T01:57:36.775Z,7.60
2018-10-02T02:00:06.308Z,7.60
2018-10-02T02:02:35.591Z,7.60
2018-10-02T02:05:05.618Z,7.60
2018-10-02T02:07:34.942Z,7.50
2018-10-02T02:10:05.006Z,7.50
2018-10-02T02:12:34.747Z,7.50
2018-10-02T02:15:04.621Z,7.50
2018-10-02T02:17:34.275Z,7.50
2018-10-02T02:20:03.626Z,7.50
2018-10-02T02:22:32.823Z,7.50
2018-10-02T02:25:03.179Z,7.50
2018-10-02T02:27:32.408Z,7.50
2018-10-02T02:30:01.719Z,7.50
2018-10-02T02:32:30.993Z,7.50
2018-10-02T02:35:00.516Z,7.60
2018-10-02T02:37:30.339Z,7.60
2018-10-02T02:40:01.045Z,7.70
2018-10-02T02:42:30.283Z,7.70
2018-10-02T02:44:59.491Z,7.70
2018-10-02T02:47:34.962Z,7.70
2018-10-02T02:50:09.651Z,7.70
2018-10-02T02:52:41.988Z,7.80
2018-10-02T02:55:11.120Z,7.80
2018-10-02T02:57:40.337Z,7.80
2018-10-02T03:00:09.807Z,7.80
2018-10-02T03:02:39.003Z,7.80
2018-10-02T03:05:08.358Z,7.90
2018-10-02T03:07:38.330Z,7.90
2018-10-02T03:10:07.699Z,7.90
2018-10-02T03:12:37.875Z,7.90
2018-10-02T03:15:07.750Z,8.00
2018-10-02T03:17:37.197Z,8.00
2018-10-02T03:20:06.580Z,8.00
2018-10-02T03:22:35.779Z,8.00
2018-10-02T03:25:05.130Z,8.00
2018-10-02T03:27:34.354Z,8.00
2018-10-02T03:30:03.701Z,8.00
2018-10-02T03:32:32.900Z,8.00
2018-10-02T03:35:03.216Z,8.00
2018-10-02T03:37:33.023Z,8.00
2018-10-02T03:40:02.331Z,8.00
2018-10-02T03:42:31.689Z,7.90
2018-10-02T03:45:00.959Z,8.00
2018-10-02T03:47:30.224Z,8.00
2018-10-02T03:49:59.409Z,8.00
2018-10-02T03:52:28.625Z,8.00
2018-10-02T03:54:57.977Z,8.00
2018-10-02T03:57:27.379Z,8.00
2018-10-02T03:59:56.567Z,8.00
2018-10-02T04:02:25.906Z,8.00
2018-10-02T04:04:55.308Z,8.00
2018-10-02T04:07:25.003Z,8.00
2018-10-02T04:09:54.371Z,8.00
2018-10-02T04:12:24.211Z,8.00
2018-10-02T04:14:53.516Z,8.00
2018-10-02T04:17:22.956Z,8.00
2018-10-02T04:19:52.228Z,8.00
2018-10-02T04:22:21.666Z,8.10
2018-10-02T04:24:51.037Z,8.10
2018-10-02T04:27:20.293Z,8.10
2018-10-02T04:29:49.540Z,8.10
2018-10-02T04:32:18.775Z,8.10
2018-10-02T04:34:48.003Z,8.10
2018-10-02T04:37:17.201Z,8.10
2018-10-02T04:39:46.556Z,8.10
2018-10-02T04:42:15.775Z,8.10
2018-10-02T04:44:44.987Z,8.10
2018-10-02T04:47:14.223Z,8.20
2018-10-02T04:49:43.430Z,8.20
2018-10-02T04:52:12.712Z,8.10
2018-10-02T04:54:41.951Z,8.10
2018-10-02T04:57:12.202Z,8.10
2018-10-02T04:59:41.552Z,8.10
2018-10-02T05:02:10.819Z,8.10
2018-10-02T05:04:40.061Z,8.20
2018-10-02T05:07:09.308Z,8.20
2018-10-02T05:09:38.544Z,8.10
2018-10-02T05:12:08.359Z,8.20
2018-10-02T05:14:37.568Z,8.20
2018-10-02T05:17:06.801Z,8.10
2018-10-02T05:19:36.000Z,8.10
2018-10-02T05:22:05.218Z,8.20
2018-10-02T05:24:34.448Z,8.10
2018-10-02T05:27:03.778Z,8.10
2018-10-02T05:29:32.996Z,8.20
2018-10-02T05:32:02.215Z,8.10
2018-10-02T05:34:31.420Z,8.10
2018-10-02T05:37:00.642Z,8.30
2018-10-02T05:39:29.845Z,8.20
2018-10-02T05:41:59.051Z,8.10
2018-10-02T05:44:28.355Z,8.10
2018-10-02T05:46:57.567Z,8.20
2018-10-02T05:49:26.748Z,8.30
2018-10-02T05:51:55.954Z,8.20
2018-10-02T05:54:25.172Z,8.20
2018-10-02T05:56:54.487Z,8.20
2018-10-02T05:59:23.731Z,8.30
2018-10-02T06:01:54.076Z,8.20
2018-10-02T06:04:23.307Z,8.20
2018-10-02T06:06:52.648Z,8.30
2018-10-02T06:09:22.044Z,8.40
2018-10-02T06:11:51.249Z,8.40
2018-10-02T06:14:20.510Z,8.30
2018-10-02T06:16:49.745Z,8.40
2018-10-02T06:19:19.090Z,8.30
2018-10-02T06:21:48.496Z,8.30
2018-10-02T06:24:18.327Z,8.40
2018-10-02T06:26:47.587Z,8.40
2018-10-02T06:29:16.798Z,8.40
2018-10-02T06:31:46.041Z,8.40
2018-10-02T06:34:15.830Z,8.50
2018-10-02T06:36:45.157Z,8.60
2018-10-02T06:39:15.053Z,8.50
2018-10-02T06:41:44.271Z,8.60
2018-10-02T06:44:13.477Z,8.60
2018-10-02T06:46:42.811Z,8.60
2018-10-02T06:49:12.190Z,8.60
2018-10-02T06:51:41.565Z,8.70
2018-10-02T06:54:10.784Z,8.80
2018-10-02T06:56:40.052Z,8.80
2018-10-02T06:59:14.276Z,8.80
2018-10-02T07:01:43.499Z,8.80
2018-10-02T07:04:12.945Z,8.90
2018-10-02T07:06:42.391Z,8.90
2018-10-02T07:09:11.905Z,9.00
2018-10-02T07:11:41.711Z,9.00
2018-10-02T07:14:11.311Z,9.10
2018-10-02T07:16:41.293Z,9.10
2018-10-02T07:19:10.764Z,9.20
2018-10-02T07:21:41.131Z,9.20
2018-10-02T07:24:10.457Z,9.30
2018-10-02T07:26:39.800Z,9.30
2018-10-02T07:29:09.115Z,9.30
2018-10-02T07:31:39.396Z,9.40
2018-10-02T07:34:08.755Z,9.40
2018-10-02T07:36:38.095Z,9.50
2018-10-02T07:39:08.299Z,9.60
2018-10-02T07:41:38.330Z,9.60
2018-10-02T07:44:07.504Z,9.60
2018-10-02T07:46:36.734Z,9.70
2018-10-02T07:49:06.824Z,9.60
2018-10-02T07:51:36.169Z,9.80
2018-10-02T07:54:06.367Z,9.70
2018-10-02T07:56:35.676Z,9.80
2018-10-02T07:59:05.308Z,9.80
2018-10-02T08:01:34.617Z,9.90
2018-10-02T08:04:03.928Z,9.90
2018-10-02T08:06:33.360Z,10.00
2018-10-02T08:09:03.962Z,10.10
2018-10-02T08:11:33.225Z,10.20
2018-10-02T08:14:02.432Z,10.20
2018-10-02T08:16:31.665Z,10.20
2018-10-02T08:19:00.967Z,10.30
2018-10-02T08:21:30.889Z,10.30
2018-10-02T08:24:00.090Z,10.30
2018-10-02T08:26:29.338Z,10.40
2018-10-02T08:28:58.644Z,10.40
2018-10-02T08:31:28.531Z,10.40
2018-10-02T08:33:57.798Z,10.50
2018-10-02T08:36:27.161Z,10.50
2018-10-02T08:38:56.399Z,10.50
2018-10-02T08:41:25.696Z,10.50
2018-10-02T08:43:55.036Z,10.50
2018-10-02T08:46:25.081Z,10.50
2018-10-02T08:48:54.303Z,10.50
2018-10-02T08:51:23.608Z,10.60
2018-10-02T08:53:53.644Z,10.70
2018-10-02T08:56:23.462Z,10.80
2018-10-02T08:58:54.903Z,10.90
2018-10-02T09:01:24.127Z,10.90
2018-10-02T09:03:53.347Z,10.90
2018-10-02T09:06:22.643Z,10.90
2018-10-02T09:08:51.817Z,11.00
2018-10-02T09:11:21.088Z,11.10
2018-10-02T09:13:50.373Z,11.20
2018-10-02T09:16:19.699Z,11.20
2018-10-02T09:18:50.058Z,11.30
2018-10-02T09:21:19.289Z,11.40
2018-10-02T09:23:48.657Z,11.50
2018-10-02T09:26:18.038Z,11.60
2018-10-02T09:28:47.478Z,11.70
2018-10-02T09:31:22.192Z,11.90
2018-10-02T09:33:56.786Z,11.90
2018-10-02T09:36:32.055Z,12.00
2018-10-02T09:39:06.761Z,12.00
2018-10-02T09:41:41.415Z,12.20
2018-10-02T09:44:10.759Z,12.30
2018-10-02T09:46:40.004Z,12.40
2018-10-02T09:49:09.265Z,12.50
2018-10-02T09:51:38.583Z,12.60
2018-10-02T09:54:07.928Z,12.70
2018-10-02T09:56:44.675Z,12.80
2018-10-02T09:59:15.343Z,12.90
2018-10-02T10:01:50.868Z,13.00
2018-10-02T10:04:20.243Z,13.20
2018-10-02T10:06:49.535Z,13.20
2018-10-02T10:09:18.986Z,13.30
2018-10-02T10:11:49.634Z,13.30
2018-10-02T10:14:18.956Z,13.50
2018-10-02T10:16:48.410Z,13.70
2018-10-02T10:19:17.797Z,14.00
2018-10-02T10:21:47.340Z,14.10
2018-10-02T10:24:16.588Z,14.20
2018-10-02T10:26:45.847Z,14.40
2018-10-02T10:29:15.093Z,14.60
2018-10-02T10:31:44.361Z,14.80
2018-10-02T10:34:14.196Z,15.00
2018-10-02T10:36:44.197Z,15.30
2018-10-02T10:39:13.616Z,15.40
2018-10-02T10:41:42.924Z,15.50
2018-10-02T10:44:12.320Z,15.60
2018-10-02T10:46:42.400Z,15.60
2018-10-02T10:49:12.272Z,15.60
2018-10-02T10:51:42.884Z,15.60
2018-10-02T10:54:12.125Z,15.40
2018-10-02T10:56:41.612Z,15.40
2018-10-02T10:59:11.205Z,15.50
2018-10-02T11:01:40.860Z,15.60
2018-10-02T11:04:10.232Z,16.00
2018-10-02T11:06:39.435Z,16.10
2018-10-02T11:09:10.215Z,16.60
2018-10-02T11:11:39.609Z,17.00
2018-10-02T11:14:09.069Z,17.30
2018-10-02T11:16:38.549Z,17.40
2018-10-02T11:19:07.833Z,17.40
2018-10-02T11:21:37.080Z,17.10
2018-10-02T11:24:06.377Z,16.60
2018-10-02T11:26:35.646Z,15.90
2018-10-02T11:29:04.980Z,15.50
2018-10-02T11:31:34.213Z,15.10
2018-10-02T11:34:03.589Z,15.00
2018-10-02T11:36:32.818Z,15.10
2018-10-02T11:39:02.184Z,15.70
2018-10-02T11:41:31.568Z,16.20
2018-10-02T11:44:00.909Z,16.70
2018-10-02T11:46:30.080Z,16.90
2018-10-02T11:48:59.599Z,17.10
2018-10-02T11:51:28.884Z,17.30
2018-10-02T11:54:02.529Z,17.60
2018-10-02T11:56:31.741Z,17.60
2018-10-02T11:59:00.984Z,17.70
2018-10-02T12:01:30.392Z,18.00
2018-10-02T12:03:59.791Z,17.90
2018-10-02T12:06:29.180Z,17.80
2018-10-02T12:08:58.578Z,17.40
2018-10-02T12:11:27.819Z,16.90
2018-10-02T12:13:57.865Z,16.30
2018-10-02T12:16:27.059Z,15.90
2018-10-02T12:18:57.021Z,15.80
2018-10-02T12:21:26.246Z,15.80
2018-10-02T12:23:55.801Z,15.90
2018-10-02T12:26:25.333Z,16.40
2018-10-02T12:28:54.561Z,16.90
2018-10-02T12:31:23.884Z,16.90
2018-10-02T12:33:54.465Z,16.50
2018-10-02T12:36:23.756Z,15.90
2018-10-02T12:38:52.991Z,15.40
2018-10-02T12:41:22.256Z,15.30
2018-10-02T12:43:52.518Z,15.40
2018-10-02T12:46:21.788Z,15.40
2018-10-02T12:48:51.184Z,15.40
2018-10-02T12:51:20.600Z,15.30
2018-10-02T12:53:49.960Z,15.40
2018-10-02T12:56:19.828Z,15.40
2018-10-02T12:58:49.101Z,15.50
2018-10-02T13:01:18.548Z,15.70
2018-10-02T13:03:47.860Z,15.80
2018-10-02T13:06:17.204Z,15.70
2018-10-02T13:08:46.413Z,15.80
2018-10-02T13:11:15.705Z,16.00
2018-10-02T13:13:45.024Z,15.90
2018-10-02T13:16:14.325Z,15.90
2018-10-02T13:18:43.748Z,16.00
2018-10-02T13:21:13.023Z,16.10
2018-10-02T13:23:42.364Z,16.00
2018-10-02T13:26:11.617Z,16.00
2018-10-02T13:28:40.832Z,15.80
2018-10-02T13:31:10.033Z,15.60
2018-10-02T13:33:39.245Z,15.50
2018-10-02T13:36:08.801Z,15.30
2018-10-02T13:38:38.073Z,15.20
2018-10-02T13:41:08.080Z,15.10
2018-10-02T13:43:38.053Z,15.20
2018-10-02T13:46:07.465Z,15.20
2018-10-02T13:48:37.485Z,15.20
2018-10-02T13:51:07.202Z,15.30
2018-10-02T13:53:36.558Z,15.30
2018-10-02T13:56:06.487Z,15.50
2018-10-02T13:58:35.732Z,15.50
2018-10-02T14:01:05.031Z,15.50
2018-10-02T14:03:34.932Z,15.50
2018-10-02T14:06:04.279Z,15.80
2018-10-02T14:08:33.691Z,16.00
2018-10-02T14:11:03.363Z,16.20
2018-10-02T14:13:32.969Z,17.10
2018-10-02T14:16:02.451Z,17.60
2018-10-02T14:18:33.336Z,17.40
2018-10-02T14:21:02.581Z,17.60
2018-10-02T14:23:32.640Z,17.20
2018-10-02T14:26:02.092Z,16.50
2018-10-02T14:28:32.147Z,15.80
2018-10-02T14:31:02.097Z,15.40
2018-10-02T14:33:31.349Z,15.00
2018-10-02T14:36:00.575Z,14.80
2018-10-02T14:38:30.005Z,14.60
2018-10-02T14:40:59.362Z,14.50
2018-10-02T14:43:28.584Z,14.50
2018-10-02T14:45:59.104Z,14.40
2018-10-02T14:48:28.926Z,14.40
2018-10-02T14:50:58.789Z,14.30
2018-10-02T14:53:28.624Z,14.20
2018-10-02T14:55:57.890Z,14.20
2018-10-02T14:58:27.233Z,14.20
2018-10-02T15:00:57.321Z,14.30
2018-10-02T15:03:26.674Z,14.40
2018-10-02T15:05:56.564Z,14.40
2018-10-02T15:08:25.925Z,14.20
2018-10-02T15:10:55.176Z,14.10
2018-10-02T15:13:24.436Z,14.10
2018-10-02T15:15:53.676Z,14.00
2018-10-02T15:18:23.664Z,14.00
2018-10-02T15:20:52.930Z,14.00
2018-10-02T15:23:22.144Z,14.10
2018-10-02T15:25:51.471Z,14.10
2018-10-02T15:28:20.845Z,14.10
2018-10-02T15:30:50.242Z,14.10
2018-10-02T15:33:19.781Z,14.10
2018-10-02T15:35:49.176Z,14.20
2018-10-02T15:38:18.515Z,14.20
2018-10-02T15:40:48.568Z,14.10
2018-10-02T15:43:17.808Z,14.00
2018-10-02T15:45:47.053Z,14.00
2018-10-02T15:48:17.156Z,13.90
2018-10-02T15:50:46.403Z,13.90
2018-10-02T15:53:15.730Z,13.90
2018-10-02T15:55:45.032Z,13.80
2018-10-02T15:58:14.315Z,13.80
2018-10-02T16:00:43.722Z,13.80
2018-10-02T16:03:13.037Z,13.80
2018-10-02T16:05:42.395Z,13.90
2018-10-02T16:08:11.969Z,14.00
2018-10-02T16:10:43.413Z,14.10
2018-10-02T16:13:12.900Z,14.10
2018-10-02T16:15:42.112Z,14.00
2018-10-02T16:18:11.400Z,13.90
2018-10-02T16:20:40.591Z,13.90
2018-10-02T16:23:09.840Z,13.80
2018-10-02T16:25:39.252Z,13.70
2018-10-02T16:28:08.546Z,13.70
2018-10-02T16:30:37.786Z,13.60
2018-10-02T16:33:07.205Z,13.50
2018-10-02T16:35:36.596Z,13.50
2018-10-02T16:38:06.404Z,13.40
2018-10-02T16:40:35.673Z,13.20
2018-10-02T16:43:05.005Z,12.80
2018-10-02T16:45:34.480Z,12.60
2018-10-02T16:48:03.968Z,12.40
2018-10-02T16:50:33.264Z,12.20
2018-10-02T16:53:03.515Z,12.10
2018-10-02T16:55:32.885Z,12.00
2018-10-02T16:58:02.185Z,12.00
2018-10-02T17:00:31.423Z,11.90
2018-10-02T17:03:00.676Z,12.00
2018-10-02T17:05:29.899Z,12.00
2018-10-02T17:07:59.122Z,12.00
2018-10-02T17:10:28.340Z,12.20
2018-10-02T17:12:57.692Z,12.10
2018-10-02T17:15:27.040Z,12.10
2018-10-02T17:17:58.800Z,12.00
2018-10-02T17:20:28.269Z,12.00
2018-10-02T17:22:57.752Z,11.90
2018-10-02T17:25:27.588Z,11.90
2018-10-02T17:27:57.077Z,11.80
2018-10-02T17:30:26.336Z,11.60
2018-10-02T17:32:55.579Z,11.50
2018-10-02T17:35:24.882Z,11.40
2018-10-02T17:37:54.304Z,11.30
2018-10-02T17:40:23.666Z,11.30
2018-10-02T17:42:52.866Z,11.30
2018-10-02T17:45:22.337Z,11.40
2018-10-02T17:47:52.874Z,11.40
2018-10-02T17:50:22.177Z,11.40
2018-10-02T17:52:51.730Z,11.40
2018-10-02T17:55:21.840Z,11.50
2018-10-02T17:57:51.545Z,11.50
2018-10-02T18:00:21.689Z,11.50
2018-10-02T18:02:51.302Z,11.40
2018-10-02T18:05:20.902Z,11.40
2018-10-02T18:07:50.185Z,11.40
2018-10-02T18:10:19.712Z,11.30
2018-10-02T18:12:49.116Z,11.20
2018-10-02T18:15:18.810Z,11.20
2018-10-02T18:17:49.164Z,11.30
2018-10-02T18:20:18.452Z,11.30
2018-10-02T18:22:48.335Z,11.40
2018-10-02T18:25:17.692Z,11.40
2018-10-02T18:27:47.235Z,11.30
2018-10-02T18:30:16.964Z,11.30
2018-10-02T18:32:47.135Z,11.40
2018-10-02T18:35:17.085Z,11.40
2018-10-02T18:37:46.424Z,11.50
2018-10-02T18:40:15.817Z,11.60
2018-10-02T18:42:46.023Z,11.70
2018-10-02T18:45:16.300Z,11.70
2018-10-02T18:47:45.881Z,11.60
2018-10-02T18:50:15.133Z,11.60
2018-10-02T18:52:44.583Z,11.50
2018-10-02T18:55:13.840Z,11.50
2018-10-02T18:57:43.225Z,11.60
2018-10-02T19:00:12.710Z,11.50
2018-10-02T19:02:42.463Z,11.50
2018-10-02T19:05:11.865Z,11.50
2018-10-02T19:07:42.570Z,11.50
2018-10-02T19:10:11.995Z,11.50
2018-10-02T19:12:42.109Z,11.60
2018-10-02T19:15:12.393Z,11.60
2018-10-02T19:17:41.719Z,11.60
2018-10-02T19:20:16.257Z,11.60
2018-10-02T19:22:45.560Z,11.60
2018-10-02T19:25:20.558Z,11.60
2018-10-02T19:27:50.618Z,11.70
2018-10-02T19:30:26.411Z,11.70
2018-10-02T19:32:56.052Z,11.70
2018-10-02T19:35:25.739Z,11.70
2018-10-02T19:38:00.373Z,11.70
2018-10-02T19:40:30.396Z,11.80
2018-10-02T19:43:00.104Z,11.90
2018-10-02T19:45:34.755Z,11.90
2018-10-02T19:48:05.258Z,11.90
2018-10-02T19:50:38.946Z,11.90
2018-10-02T19:53:08.493Z,11.90
2018-10-02T19:55:37.916Z,11.80
2018-10-02T19:58:07.308Z,11.80
2018-10-02T20:00:36.921Z,11.80
2018-10-02T20:03:07.115Z,11.70
2018-10-02T20:05:36.577Z,11.60
2018-10-02T20:08:06.111Z,11.50
2018-10-02T20:10:35.738Z,11.50
2018-10-02T20:13:05.943Z,11.40
2018-10-02T20:15:35.175Z,11.50
2018-10-02T20:18:05.339Z,11.50
2018-10-02T20:20:34.664Z,11.50
2018-10-02T20:23:04.564Z,11.60
2018-10-02T20:25:34.223Z,11.60
2018-10-02T20:28:03.483Z,11.60
2018-10-02T20:30:33.828Z,11.50
2018-10-02T20:33:03.643Z,11.40
2018-10-02T20:35:32.913Z,11.20
2018-10-02T20:38:02.258Z,11.10
2018-10-02T20:40:31.759Z,11.10
2018-10-02T20:43:01.675Z,11.00
2018-10-02T20:45:31.117Z,11.00
2018-10-02T20:48:01.381Z,10.90
2018-10-02T20:50:31.169Z,10.90
2018-10-02T20:53:00.454Z,10.80
2018-10-02T20:55:29.965Z,10.70
2018-10-02T20:57:59.821Z,10.60
2018-10-02T21:00:29.475Z,10.60
2018-10-02T21:02:58.834Z,10.60
2018-10-02T21:05:28.216Z,10.50
2018-10-02T21:07:58.194Z,10.60
2018-10-02T21:10:27.425Z,10.60
2018-10-02T21:12:56.668Z,10.70
2018-10-02T21:15:26.640Z,10.70
2018-10-02T21:17:56.353Z,10.70
2018-10-02T21:20:25.769Z,10.70
2018-10-02T21:22:55.123Z,10.70
2018-10-02T21:25:24.364Z,10.80
2018-10-02T21:27:53.601Z,10.90
2018-10-02T21:30:22.837Z,11.00
2018-10-02T21:32:52.648Z,11.10
2018-10-02T21:35:21.844Z,11.20
2018-10-02T21:37:51.139Z,11.30
2018-10-02T21:40:20.506Z,11.40
2018-10-02T21:42:49.588Z,11.30
2018-10-02T21:45:19.480Z,11.30
2018-10-02T21:47:48.700Z,11.30
2018-10-02T21:50:17.972Z,11.30
2018-10-02T21:52:47.212Z,11.30
2018-10-02T21:55:17.688Z,11.20
2018-10-02T21:57:46.945Z,11.10
2018-10-02T22:00:16.311Z,11.10
2018-10-02T22:02:45.784Z,11.10
2018-10-02T22:05:15.119Z,11.10
2018-10-02T22:07:44.402Z,11.10
2018-10-02T22:10:13.679Z,11.10
2018-10-02T22:12:42.912Z,11.10
2018-10-02T22:15:12.250Z,11.20
2018-10-02T22:17:41.459Z,11.30
2018-10-02T22:20:11.291Z,11.30
2018-10-02T22:22:40.572Z,11.30
2018-10-02T22:25:09.816Z,11.30
2018-10-02T22:27:39.636Z,11.20
2018-10-02T22:30:10.944Z,11.10
2018-10-02T22:32:40.416Z,11.00
2018-10-02T22:35:10.001Z,11.00
2018-10-02T22:37:39.272Z,11.10
2018-10-02T22:40:08.855Z,11.10
2018-10-02T22:42:38.819Z,11.10
2018-10-02T22:45:08.085Z,11.20
2018-10-02T22:47:38.107Z,11.30
2018-10-02T22:50:07.441Z,11.30
2018-10-02T22:52:36.669Z,11.30
2018-10-02T22:55:05.979Z,11.30
2018-10-02T22:57:35.327Z,11.30
2018-10-02T23:00:04.626Z,11.20
2018-10-02T23:02:33.879Z,11.10
2018-10-02T23:05:03.640Z,11.10
2018-10-02T23:07:32.898Z,11.30
2018-10-02T23:10:02.255Z,11.30
2018-10-02T23:12:31.522Z,11.40
2018-10-02T23:15:01.578Z,11.50
2018-10-02T23:17:30.848Z,11.60
2018-10-02T23:20:00.061Z,11.60
2018-10-02T23:22:30.459Z,11.70
2018-10-02T23:24:59.704Z,11.70
2018-10-02T23:27:28.959Z,11.80
2018-10-02T23:29:58.278Z,11.80
2018-10-02T23:32:28.145Z,11.70
2018-10-02T23:34:57.361Z,11.60
2018-10-02T23:37:26.632Z,11.50
2018-10-02T23:39:55.896Z,11.50
2018-10-02T23:42:25.248Z,11.60
2018-10-02T23:44:54.499Z,11.60
2018-10-02T23:47:23.855Z,11.60
2018-10-02T23:49:53.307Z,11.70
2018-10-02T23:52:22.649Z,11.70
2018-10-02T23:54:51.989Z,11.70
2018-10-02T23:57:21.208Z,11.80
2018-10-02T23:59:50.422Z,11.80
